createdAt,value
2018-09-11T00:01:13.976Z,100498.91
2018-09-11T00:03:42.696Z,100503.00
2018-09-11T00:06:11.303Z,100511.00
2018-09-11T00:08:39.972Z,100516.87
2018-09-11T00:11:08.530Z,100512.55
2018-09-11T00:13:37.094Z,100511.70
2018-09-11T00:16:05.604Z,100508.28
2018-09-11T00:18:34.189Z,100505.69
2018-09-11T00:21:02.768Z,100499.13
2018-09-11T00:23:31.415Z,100500.97
2018-09-11T00:25:59.993Z,100497.51
2018-09-11T00:28:28.503Z,100492.31
2018-09-11T00:30:57.141Z,100490.09
2018-09-11T00:33:25.716Z,100501.63
2018-09-11T00:35:54.305Z,100506.53
2018-09-11T00:38:22.893Z,100502.59
2018-09-11T00:40:51.503Z,100504.83
2018-09-11T00:43:20.085Z,100503.10
2018-09-11T00:45:48.646Z,100498.30
2018-09-11T00:48:17.348Z,100498.34
2018-09-11T00:50:45.990Z,100500.19
2018-09-11T00:53:14.513Z,100493.99
2018-09-11T00:55:43.029Z,100498.41
2018-09-11T00:58:11.593Z,100496.16
2018-09-11T01:00:40.208Z,100489.98
2018-09-11T01:03:08.808Z,100493.92
2018-09-11T01:05:37.430Z,100493.00
2018-09-11T01:08:05.966Z,100491.78
2018-09-11T01:10:34.578Z,100493.52
2018-09-11T01:13:03.196Z,100494.44
2018-09-11T01:15:31.826Z,100500.63
2018-09-11T01:18:00.476Z,100496.23
2018-09-11T01:20:29.120Z,100492.67
2018-09-11T01:22:57.649Z,100489.16
2018-09-11T01:25:26.197Z,100490.45
2018-09-11T01:27:54.710Z,100488.24
2018-09-11T01:30:23.860Z,100483.82
2018-09-11T01:32:52.898Z,100478.52
2018-09-11T01:35:22.197Z,100480.32
2018-09-11T01:37:50.737Z,100475.94
2018-09-11T01:40:19.372Z,100473.32
2018-09-11T01:42:47.905Z,100467.17
2018-09-11T01:45:16.540Z,100458.80
2018-09-11T01:47:45.124Z,100469.92
2018-09-11T01:50:13.705Z,100461.59
2018-09-11T01:52:42.374Z,100458.13
2018-09-11T01:55:10.917Z,100458.23
2018-09-11T01:57:39.562Z,100450.35
2018-09-11T02:00:12.306Z,100453.59
2018-09-11T02:02:40.921Z,100455.45
2018-09-11T02:05:09.528Z,100443.19
2018-09-11T02:07:38.142Z,100447.27
2018-09-11T02:10:06.783Z,100451.35
2018-09-11T02:12:35.264Z,100451.83
2018-09-11T02:15:03.991Z,100444.35
2018-09-11T02:17:32.642Z,100447.58
2018-09-11T02:20:01.224Z,100449.45
2018-09-11T02:22:29.765Z,100448.20
2018-09-11T02:24:59.673Z,100446.91
2018-09-11T02:27:28.381Z,100454.45
2018-09-11T02:29:56.955Z,100451.83
2018-09-11T02:32:26.101Z,100447.92
2018-09-11T02:34:55.100Z,100459.44
2018-09-11T02:37:23.731Z,100443.60
2018-09-11T02:39:52.465Z,100439.70
2018-09-11T02:42:20.994Z,100445.03
2018-09-11T02:44:49.612Z,100443.73
2018-09-11T02:47:18.197Z,100448.62
2018-09-11T02:49:46.814Z,100456.17
2018-09-11T02:52:15.447Z,100467.72
2018-09-11T02:54:44.251Z,100469.45
2018-09-11T02:57:12.802Z,100471.66
2018-09-11T02:59:41.425Z,100476.55
2018-09-11T03:02:10.002Z,100473.91
2018-09-11T03:04:38.564Z,100477.06
2018-09-11T03:07:07.182Z,100471.38
2018-09-11T03:09:35.757Z,100468.33
2018-09-11T03:12:04.424Z,100465.27
2018-09-11T03:14:32.954Z,100471.92
2018-09-11T03:17:01.536Z,100471.04
2018-09-11T03:19:30.164Z,100467.95
2018-09-11T03:21:58.801Z,100471.11
2018-09-11T03:24:27.414Z,100469.72
2018-09-11T03:26:55.974Z,100471.04
2018-09-11T03:29:24.521Z,100472.74
2018-09-11T03:31:53.108Z,100484.67
2018-09-11T03:34:21.681Z,100485.05
2018-09-11T03:36:50.767Z,100488.42
2018-09-11T03:39:19.435Z,100482.95
2018-09-11T03:41:48.088Z,100482.72
2018-09-11T03:44:16.724Z,100475.48
2018-09-11T03:46:45.385Z,100476.61
2018-09-11T03:49:13.936Z,100474.30
2018-09-11T03:51:42.580Z,100479.91
2018-09-11T03:54:11.140Z,100410.64
2018-09-11T03:56:39.823Z,100485.23
2018-09-11T03:59:08.419Z,100485.17
2018-09-11T04:01:37.029Z,100497.41
2018-09-11T04:04:05.627Z,100496.01
2018-09-11T04:06:34.182Z,100491.45
2018-09-11T04:09:02.781Z,100492.91
2018-09-11T04:11:31.422Z,100504.45
2018-09-11T04:14:00.052Z,100504.81
2018-09-11T04:16:28.728Z,100499.41
2018-09-11T04:18:57.294Z,100498.97
2018-09-11T04:21:27.703Z,100493.59
2018-09-11T04:23:56.267Z,100499.30
2018-09-11T04:26:24.884Z,100508.00
2018-09-11T04:28:53.553Z,100508.37
2018-09-11T04:31:22.342Z,100504.83
2018-09-11T04:33:50.988Z,100497.28
2018-09-11T04:36:19.586Z,100495.88
2018-09-11T04:38:48.264Z,100499.79
2018-09-11T04:41:16.795Z,100503.33
2018-09-11T04:43:45.515Z,100501.12
2018-09-11T04:46:14.149Z,100493.56
2018-09-11T04:48:44.732Z,100493.63
2018-09-11T04:51:13.329Z,100495.44
2018-09-11T04:53:41.933Z,100490.13
2018-09-11T04:56:10.547Z,100497.14
2018-09-11T04:58:39.188Z,100494.85
2018-09-11T05:01:07.795Z,100490.47
2018-09-11T05:03:39.304Z,100487.00
2018-09-11T05:06:08.018Z,100490.47
2018-09-11T05:08:36.632Z,100492.61
2018-09-11T05:11:05.484Z,100493.83
2018-09-11T05:13:34.440Z,100488.22
2018-09-11T05:16:03.032Z,100489.41
2018-09-11T05:18:31.690Z,100485.02
2018-09-11T05:21:00.756Z,100479.23
2018-09-11T05:23:29.786Z,100477.50
2018-09-11T05:25:59.165Z,100468.72
2018-09-11T05:28:37.803Z,100471.74
2018-09-11T05:31:07.099Z,100475.61
2018-09-11T05:33:36.022Z,100483.43
2018-09-11T05:38:41.988Z,100478.48
2018-09-11T05:41:11.407Z,100478.89
2018-09-11T05:43:40.187Z,100480.07
2018-09-11T05:46:12.334Z,100491.02
2018-09-11T05:48:41.393Z,100500.56
2018-09-11T05:51:13.881Z,100492.16
2018-09-11T05:53:42.755Z,100494.89
2018-09-11T05:56:11.476Z,100503.22
2018-09-11T05:58:40.121Z,100497.95
2018-09-11T06:01:08.756Z,100493.48
2018-09-11T06:03:37.337Z,100490.69
2018-09-11T06:06:07.030Z,100498.16
2018-09-11T06:08:35.558Z,100493.55
2018-09-11T06:11:04.109Z,100490.38
2018-09-11T06:13:32.685Z,100492.70
2018-09-11T06:16:01.940Z,100494.32
2018-09-11T06:18:30.602Z,100491.88
2018-09-11T06:20:59.190Z,100503.52
2018-09-11T06:23:27.661Z,100498.84
2018-09-11T06:25:56.316Z,100509.16
2018-09-11T06:28:24.963Z,100493.63
2018-09-11T06:30:53.558Z,100492.13
2018-09-11T06:33:22.053Z,100492.38
2018-09-11T06:35:50.640Z,100495.53
2018-09-11T06:38:19.226Z,100490.87
2018-09-11T06:40:47.869Z,100492.55
2018-09-11T06:43:16.693Z,100483.16
2018-09-11T06:45:45.281Z,100491.84
2018-09-11T06:48:13.893Z,100495.34
2018-09-11T06:50:42.443Z,100505.23
2018-09-11T06:53:11.385Z,100502.94
2018-09-11T06:55:39.979Z,100507.20
2018-09-11T06:58:08.928Z,100511.19
2018-09-11T07:00:37.702Z,100510.34
2018-09-11T07:03:06.548Z,100505.49
2018-09-11T07:05:35.159Z,100506.15
2018-09-11T07:08:03.816Z,100509.27
2018-09-11T07:10:32.491Z,100505.33
2018-09-11T07:13:01.183Z,100504.64
2018-09-11T07:15:29.889Z,100405.29
2018-09-11T07:17:58.802Z,100525.37
2018-09-11T07:20:27.697Z,100512.16
2018-09-11T07:22:56.314Z,100512.56
2018-09-11T07:25:25.047Z,100529.02
2018-09-11T07:27:55.236Z,100527.80
2018-09-11T07:30:24.136Z,100520.36
2018-09-11T07:32:52.885Z,100533.44
2018-09-11T07:35:21.495Z,100537.11
2018-09-11T07:37:50.194Z,100529.11
2018-09-11T07:40:18.735Z,100534.26
2018-09-11T07:42:47.363Z,100535.33
2018-09-11T07:45:16.025Z,100532.52
2018-09-11T07:47:44.705Z,100528.77
2018-09-11T07:50:13.488Z,100536.28
2018-09-11T07:52:42.361Z,100534.80
2018-09-11T07:55:10.922Z,100528.97
2018-09-11T07:57:39.730Z,100528.69
2018-09-11T08:00:08.841Z,100538.03
2018-09-11T08:02:37.439Z,100531.56
2018-09-11T08:05:06.049Z,100537.86
2018-09-11T08:07:34.639Z,100543.61
2018-09-11T08:10:03.331Z,100545.83
2018-09-11T08:12:31.909Z,100535.25
2018-09-11T08:15:00.592Z,100532.80
2018-09-11T08:17:29.181Z,100539.53
2018-09-11T08:19:58.031Z,100538.75
2018-09-11T08:22:26.833Z,100540.50
2018-09-11T08:24:55.493Z,100543.27
2018-09-11T08:27:24.285Z,100532.91
2018-09-11T08:29:53.072Z,100537.86
2018-09-11T08:32:21.686Z,100536.33
2018-09-11T08:34:50.305Z,100537.70
2018-09-11T08:37:19.109Z,100537.65
2018-09-11T08:39:47.942Z,100536.66
2018-09-11T08:42:16.767Z,100532.41
2018-09-11T08:44:45.384Z,100539.49
2018-09-11T08:47:14.030Z,100517.29
2018-09-11T08:49:42.596Z,100523.40
2018-09-11T08:52:11.289Z,100520.22
2018-09-11T08:54:40.024Z,100524.73
2018-09-11T08:57:08.625Z,100523.12
2018-09-11T08:59:37.697Z,100533.06
2018-09-11T09:02:06.801Z,100521.05
2018-09-11T09:04:37.189Z,100527.38
2018-09-11T09:07:11.383Z,100524.36
2018-09-11T09:09:41.349Z,100525.72
2018-09-11T09:12:10.763Z,100525.19
2018-09-11T09:14:39.851Z,100528.52
2018-09-11T09:17:08.912Z,100521.40
2018-09-11T09:19:38.186Z,100520.25
2018-09-11T09:22:07.462Z,100516.70
2018-09-11T09:24:36.659Z,100512.81
2018-09-11T09:27:07.112Z,100506.00
2018-09-11T09:29:36.042Z,100504.63
2018-09-11T16:37:35.072Z,100249.61
2018-09-11T16:40:04.517Z,100257.06
2018-09-11T16:42:33.263Z,100255.59
2018-09-11T16:45:01.882Z,100248.13
2018-09-11T16:47:30.515Z,100244.53
2018-09-11T16:49:59.265Z,100254.31
2018-09-11T16:52:28.233Z,100256.00
2018-09-11T16:54:57.022Z,100250.86
2018-09-11T16:57:25.799Z,100249.72
2018-09-11T16:59:54.579Z,100251.30
2018-09-11T17:02:23.374Z,100239.98
2018-09-11T17:04:52.072Z,100256.59
2018-09-11T17:07:20.616Z,100249.20
2018-09-11T17:09:49.230Z,100255.06
2018-09-11T17:12:17.811Z,100250.52
2018-09-11T17:14:46.597Z,100254.80
2018-09-11T17:17:15.937Z,100256.47
2018-09-11T17:19:44.610Z,100258.26
2018-09-11T17:22:13.350Z,100255.30
2018-09-11T17:24:42.031Z,100264.67
2018-09-11T17:27:10.915Z,100260.23
2018-09-11T17:29:39.477Z,100261.91
2018-09-11T17:32:08.108Z,100263.58
2018-09-11T17:34:36.663Z,100264.34
2018-09-11T17:37:05.448Z,100271.53
2018-09-11T17:39:33.990Z,100273.39
2018-09-11T17:42:02.671Z,100271.53
2018-09-11T17:44:31.309Z,100275.02
2018-09-11T17:46:59.796Z,100278.25
2018-09-11T17:49:28.390Z,100276.84
2018-09-11T17:51:56.968Z,100283.14
2018-09-11T17:54:25.509Z,100282.30
2018-09-11T17:56:54.057Z,100292.96
2018-09-11T17:59:22.667Z,100294.24
2018-09-11T18:01:51.237Z,100296.49
2018-09-11T18:04:19.841Z,100295.55
2018-09-11T18:06:48.448Z,100296.95
2018-09-11T18:09:17.119Z,100296.39
2018-09-11T18:11:45.742Z,100300.81
2018-09-11T18:14:14.323Z,100302.20
2018-09-11T18:16:42.843Z,100303.73
2018-09-11T18:19:11.514Z,100312.09
2018-09-11T18:21:40.073Z,100310.12
2018-09-11T18:24:10.783Z,100315.37
2018-09-11T18:26:41.519Z,100317.11
2018-09-11T18:29:10.231Z,100319.13
2018-09-11T18:31:38.964Z,100319.34
2018-09-11T18:34:07.573Z,100321.36
2018-09-11T18:36:36.227Z,100329.70
2018-09-11T18:39:06.395Z,100322.32
2018-09-11T18:41:35.003Z,100325.68
2018-09-11T18:44:03.672Z,100326.84
2018-09-11T18:46:32.487Z,100329.41
2018-09-11T18:49:01.140Z,100331.55
2018-09-11T18:51:29.856Z,100337.58
2018-09-11T18:53:58.350Z,100331.74
2018-09-11T18:56:27.016Z,100335.55
2018-09-11T18:58:55.587Z,100335.00
2018-09-11T19:01:24.203Z,100334.29
2018-09-11T19:03:52.839Z,100331.05
2018-09-11T19:06:21.377Z,100338.88
2018-09-11T19:08:50.004Z,100335.64
2018-09-11T19:11:18.762Z,100338.11
2018-09-11T19:13:47.378Z,100339.73
2018-09-11T19:16:16.041Z,100338.20
2018-09-11T19:18:44.717Z,100331.67
2018-09-11T19:21:13.367Z,100331.78
2018-09-11T19:23:41.968Z,100331.95
2018-09-11T19:26:10.676Z,100331.69
2018-09-11T19:28:39.231Z,100334.06
2018-09-11T19:31:07.822Z,100332.05
2018-09-11T19:33:36.562Z,100331.36
2018-09-11T19:36:05.112Z,100329.34
2018-09-11T19:38:33.730Z,100330.49
2018-09-11T19:41:02.364Z,100320.89
2018-09-11T19:43:30.943Z,100326.45
2018-09-11T19:45:59.870Z,100326.69
2018-09-11T19:48:28.523Z,100323.44
2018-09-11T19:50:57.342Z,100330.79
2018-09-11T19:53:26.165Z,100327.89
2018-09-11T19:55:54.881Z,100329.98
2018-09-11T19:58:23.554Z,100331.21
2018-09-11T20:00:52.115Z,100333.77
2018-09-11T20:03:20.803Z,100338.13
2018-09-11T20:05:49.398Z,100338.78
2018-09-11T20:08:17.877Z,100332.35
2018-09-11T20:10:46.550Z,100334.91
2018-09-11T20:13:15.119Z,100336.97
2018-09-11T20:15:43.733Z,100335.50
2018-09-11T20:18:12.350Z,100335.77
2018-09-11T20:20:41.132Z,100334.38
2018-09-11T20:23:09.826Z,100333.38
2018-09-11T20:25:38.428Z,100335.04
2018-09-11T20:28:07.713Z,100328.99
2018-09-11T20:30:36.600Z,100333.68
2018-09-11T20:33:05.413Z,100334.39
2018-09-11T20:35:34.390Z,100335.03
2018-09-11T20:38:02.996Z,100337.00
2018-09-11T20:40:31.600Z,100337.25
2018-09-11T20:43:00.466Z,100345.45
2018-09-11T20:45:29.169Z,100339.86
2018-09-11T20:47:57.985Z,100340.99
2018-09-11T20:50:26.668Z,100343.45
2018-09-11T20:52:55.393Z,100341.09
2018-09-11T20:55:24.177Z,100337.27
2018-09-11T20:57:52.783Z,100333.92
2018-09-11T21:00:21.528Z,100333.33
2018-09-11T21:02:50.243Z,100331.28
2018-09-11T21:05:18.986Z,100340.39
2018-09-11T21:07:47.669Z,100349.45
2018-09-11T21:10:16.385Z,100345.27
2018-09-11T21:12:44.997Z,100348.17
2018-09-11T21:15:13.615Z,100346.16
2018-09-11T21:17:42.268Z,100345.91
2018-09-11T21:20:11.051Z,100340.80
2018-09-11T21:22:39.647Z,100338.69
2018-09-11T21:25:08.365Z,100335.70
2018-09-11T21:27:37.057Z,100339.88
2018-09-11T21:30:05.741Z,100342.29
2018-09-11T21:32:34.264Z,100341.51
2018-09-11T21:35:02.860Z,100346.07
2018-09-11T21:37:31.554Z,100349.85
2018-09-11T21:40:00.213Z,100346.47
2018-09-11T21:42:28.891Z,100351.94
2018-09-11T21:44:57.678Z,100350.31
2018-09-11T21:47:26.443Z,100357.48
2018-09-11T21:49:55.008Z,100353.18
2018-09-11T21:52:25.381Z,100352.36
2018-09-11T21:54:54.364Z,100351.59
2018-09-11T21:57:24.222Z,100349.47
2018-09-11T21:59:52.770Z,100357.54
2018-09-11T22:02:21.756Z,100363.43
2018-09-11T22:04:50.296Z,100361.31
2018-09-11T22:07:18.847Z,100364.99
2018-09-11T22:09:47.385Z,100362.00
2018-09-11T22:12:15.987Z,100359.42
2018-09-11T22:14:44.541Z,100362.16
2018-09-11T22:17:13.071Z,100358.61
2018-09-11T22:19:41.643Z,100358.70
2018-09-11T22:22:11.511Z,100361.05
2018-09-11T22:24:40.071Z,100358.93
2018-09-11T22:27:08.631Z,100358.60
2018-09-11T22:29:37.187Z,100359.16
2018-09-11T22:32:05.722Z,100361.49
2018-09-11T22:34:40.047Z,100363.83
2018-09-11T22:37:08.689Z,100365.32
2018-09-11T22:39:37.208Z,100362.33
2018-09-11T22:42:05.789Z,100358.09
2018-09-11T22:44:34.308Z,100356.42
2018-09-11T22:47:02.879Z,100357.03
2018-09-11T22:49:31.404Z,100354.98
2018-09-11T22:51:59.958Z,100354.64
2018-09-11T22:54:28.471Z,100348.92
2018-09-11T22:56:57.026Z,100352.53
2018-09-11T22:59:25.555Z,100349.02
2018-09-11T23:01:54.170Z,100349.47
2018-09-11T23:04:22.781Z,100352.63
2018-09-11T23:06:51.409Z,100350.02
2018-09-11T23:09:19.905Z,100352.30
2018-09-11T23:11:48.413Z,100352.35
2018-09-11T23:14:16.948Z,100348.84
2018-09-11T23:16:45.485Z,100344.45
2018-09-11T23:19:14.023Z,100348.45
2018-09-11T23:21:42.529Z,100348.91
2018-09-11T23:24:10.969Z,100349.41
2018-09-11T23:26:39.528Z,100350.36
2018-09-11T23:29:08.027Z,100349.08
2018-09-11T23:31:36.594Z,100343.42
2018-09-11T23:34:05.049Z,100348.42
2018-09-11T23:36:33.647Z,100338.30
2018-09-11T23:39:02.258Z,100338.84
2018-09-11T23:41:30.770Z,100333.19
2018-09-11T23:43:59.400Z,100333.73
2018-09-11T23:46:27.887Z,100338.66
2018-09-11T23:48:56.404Z,100340.55
2018-09-11T23:51:24.911Z,100339.81
2018-09-11T23:53:53.414Z,100343.14
2018-09-11T23:56:21.936Z,100339.36
2018-09-11T23:58:50.422Z,100337.78
